KMSV/MSV METAR and TAF weather

Enter ICAO airport designator
Station Type Date Time Source
KMSV METAR 2019/12/07 07:20 UTC NOAA

KMSV 070720Z AUTO 30007KT 10SM SCT027 SCT049 M04/M08 A3016 RMK AO2 FZRANO


Station Type Date Time Source
KMSV Decoded METAR 2019/12/07 07:20 UTC NOAA

Monticello, Sullivan County International Airport, NY, United States (KMSV) 41-42N 074-48W
Dec 07, 2019 - 02:20 AM EST / 2019.12.07 0720 UTC
Wind: from the WNW (300 degrees) at 8 MPH (7 KT):0
Visibility: 10 mile(s):0
Sky conditions: partly cloudy
Temperature: 24 F (-4 C)
Windchill: 15 F (-9 C):1
Dew Point: 17 F (-8 C)
Relative Humidity: 73%
Pressure (altimeter): 30.16 in. Hg (1021 hPa)
ob: KMSV 070720Z AUTO 30007KT 10SM SCT027 SCT049 M04/M08 A3016 RMK AO2 FZRANO
cycle: 7

Station Type Date Time Source
KMSV TAF UTC NOAA

Error!

Example: see airport list